Главная страница
METAR-TAF:

METAR-TAF

Аэропорты :

Каяани, Финляндия

Каяни

широта: 64-17N, долгота: 027-41E, высота над уровнем моря: 143 м

Текущие метеонаблюдения

Эта сводка был подготовлена 34 минут назад, в 06:50 UTC
Ветер 9 Узел от восточный, изменяющийся между северо-восточный и юго-юго-восточный
Температура 2°C
Влажность 47%
Давление 1031 hPa
Видимость 10 км и более
небольшая облачность на высоте 4100 фута

METAR: EFKI 290650Z AUTO 08009KT 050V150 9999 FEW041 02/M08 Q1031

Время: 10:24 (07:24 UTC)

Прогноз

Эта сводка был подготовлена 1 час и 46 минут назад, в 05:38 UTC
Прогноз действительный с 29-го 06 UTC до 29-го 12 UTC
Ветер 8 Узел от восточный
Видимость 10 км и более
Отдельные облака на высоте 4500 фута

TAF: EFKI 290538Z 2906/2912 09008KT 9999 SCT045

Метеонаблюдения и прогнозы для более 4000 аэропортов (сводки METAR и TAF).

Имеющиеся станции представлены на карте желтыми и красными точками.

Чтобы увидеть название станции, наведите на нее мышь.

Затем щелкните, чтобы увидеть метеонаблюдения и метеопрогнозы.

Управление картой: чтобы увеличить масштаб, щелкните зеленые кнопки с черным крестиком; чтобы уменьшить масштаб, щелкните зеленую кнопку с тире; для просмотра соседних карт щелкайте зеленые стрелки.


METAR-TAF: